Mineral Wells, Texas
Current Conditions -  °F | °C
As of 1:53 AM on Thursday 18 Dec 2014 (Local Time) from KMWL Reporting Station
Haze Haze  
Wind Chill: 39°   Ceiling: 200
Heat Index: 43°   Visibility: 1.7mi
Dew Point: 42°   Wind: 7mph
Humidity: 97%   Direction: 130°SE
Pressure: 30.09"   Gusts: NA
Location:  32.81°N, 98.07°W
Report Text: KMWL 180753Z AUTO 13006KT 1 3/4SM BR OVC002 06/06 A3009 RMK AO2 SLP187 T00610056
Loading
Personal Weather Stations






























Interactive Weather Map New forecast layout! Learn more

10-Day Weather Forecast

Advertisements
Track Severe Weather on mobile